Time;durP1;ratioP1;P1;durP2;ratioP2;P2;SDS_P1;SDS_P2;PMS_P1;PMS_P2;Temp;Humidity;BMP_temperature;BMP_pressure;BME280_temperature;BME280_humidity;BME280_pressure;Samples;Min_cycle;Max_cycle;Signal;HPM_P1;HPM_P2
2022/03/09 00:00:22;;;;;;;31.03;25.10;;;0.50;99.90;;;;;;4977491;28;20561;-73
2022/03/09 00:02:49;;;;;;;32.90;25.13;;;0.40;99.90;;;;;;5004986;28;21051;-73
2022/03/09 00:05:16;;;;;;;35.13;24.63;;;0.30;99.90;;;;;;4998181;28;20945;-72
2022/03/09 00:07:43;;;;;;;29.97;23.97;;;0.20;99.90;;;;;;5003092;28;20464;-73
2022/03/09 00:10:11;;;;;;;28.73;24.57;;;0.10;99.90;;;;;;4999261;28;20971;-73
2022/03/09 00:12:39;;;;;;;27.77;23.53;;;-0.10;99.90;;;;;;5000285;28;20468;-73
2022/03/09 00:15:06;;;;;;;41.23;25.20;;;-0.30;99.90;;;;;;5005485;28;20451;-73
2022/03/09 00:17:33;;;;;;;31.50;25.57;;;-0.50;99.90;;;;;;4998354;28;20553;-72
2022/03/09 00:20:00;;;;;;;28.40;24.87;;;-0.60;99.90;;;;;;5001614;28;20841;-72
2022/03/09 00:22:27;;;;;;;26.83;24.13;;;-0.70;99.90;;;;;;4996305;28;20463;-72
2022/03/09 00:24:54;;;;;;;32.80;25.57;;;-0.80;99.90;;;;;;5001792;28;20959;-72
2022/03/09 00:27:22;;;;;;;38.20;24.93;;;-0.90;99.90;;;;;;5000679;28;20498;-73
2022/03/09 00:29:49;;;;;;;33.57;24.63;;;-1.00;99.90;;;;;;5005026;28;20514;-72
2022/03/09 00:32:16;;;;;;;30.93;26.87;;;-1.00;99.90;;;;;;5000311;28;20471;-74
2022/03/09 00:34:43;;;;;;;26.57;23.87;;;-1.00;99.90;;;;;;5002499;28;20469;-72
2022/03/09 00:37:10;;;;;;;38.27;25.40;;;-1.00;99.90;;;;;;5001635;28;20488;-71
2022/03/09 00:39:52;;;;;;;26.80;24.30;;;-1.10;99.90;;;;;;5007363;28;20468;-71
2022/03/09 00:42:18;;;;;;;36.97;25.80;;;-1.10;99.90;;;;;;5005810;28;20476;-72
2022/03/09 00:44:47;;;;;;;34.23;25.87;;;-1.10;99.90;;;;;;5003709;28;20975;-72
2022/03/09 00:47:13;;;;;;;35.47;27.00;;;-1.20;99.90;;;;;;5001287;28;20464;-72
2022/03/09 00:49:44;;;;;;;28.20;25.37;;;-1.20;99.90;;;;;;4998759;28;20487;-72
2022/03/09 00:52:10;;;;;;;28.80;25.93;;;-1.20;99.90;;;;;;5000685;28;20462;-72
2022/03/09 00:54:38;;;;;;;36.00;25.50;;;-1.10;99.90;;;;;;5002990;28;20469;-72
2022/03/09 00:57:05;;;;;;;32.43;25.80;;;-0.90;99.90;;;;;;4999231;28;20548;-72
2022/03/09 00:59:33;;;;;;;28.47;25.43;;;-0.70;99.90;;;;;;5000342;28;20483;-72
2022/03/09 01:02:01;;;;;;;27.77;25.17;;;-0.50;99.90;;;;;;4995471;28;20837;-71
2022/03/09 01:04:28;;;;;;;32.60;25.93;;;-0.40;99.90;;;;;;4999749;28;20500;-72
2022/03/09 01:06:55;;;;;;;28.37;25.40;;;-0.10;99.90;;;;;;4998226;28;20481;-72
2022/03/09 01:09:22;;;;;;;27.23;24.53;;;0.00;99.90;;;;;;5002076;28;21060;-72
2022/03/09 01:11:48;;;;;;;28.37;25.30;;;0.10;99.90;;;;;;5004055;28;20717;-72
2022/03/09 01:14:15;;;;;;;27.33;24.73;;;0.30;99.90;;;;;;4996474;28;20473;-72
2022/03/09 01:16:42;;;;;;;30.43;24.90;;;0.40;99.90;;;;;;4996754;28;20488;-72
2022/03/09 01:19:11;;;;;;;27.40;24.60;;;0.50;99.90;;;;;;5003166;28;20479;-72
2022/03/09 01:21:38;;;;;;;27.37;24.77;;;0.70;99.90;;;;;;5001159;28;20461;-72
2022/03/09 01:24:06;;;;;;;25.53;23.30;;;0.60;99.90;;;;;;4999504;28;20476;-72
2022/03/09 01:26:33;;;;;;;29.23;24.70;;;0.80;99.90;;;;;;5003806;28;21085;-72
2022/03/09 01:29:00;;;;;;;27.17;24.33;;;0.80;99.90;;;;;;4999949;28;20502;-72
2022/03/09 01:31:27;;;;;;;30.07;25.37;;;1.00;99.90;;;;;;4999660;28;20469;-72
2022/03/09 01:33:54;;;;;;;33.43;22.90;;;1.10;99.90;;;;;;4998484;28;20470;-71
2022/03/09 01:36:22;;;;;;;26.10;23.50;;;1.10;99.90;;;;;;5004806;28;20485;-71
2022/03/09 01:38:49;;;;;;;24.73;22.30;;;1.20;99.90;;;;;;5002884;28;20472;-71
2022/03/09 01:41:16;;;;;;;27.20;23.40;;;1.30;99.90;;;;;;5000083;28;20476;-71
2022/03/09 01:43:43;;;;;;;30.20;23.40;;;1.40;99.90;;;;;;5002583;28;20469;-71
2022/03/09 01:46:10;;;;;;;27.03;22.43;;;1.40;99.90;;;;;;4995002;28;20467;-71
2022/03/09 01:48:37;;;;;;;44.97;24.53;;;1.40;99.90;;;;;;5002797;28;20963;-71
2022/03/09 01:51:04;;;;;;;27.03;22.67;;;1.30;99.90;;;;;;5006642;28;20488;-71
2022/03/09 01:53:32;;;;;;;27.83;23.30;;;1.30;99.90;;;;;;4998111;28;21118;-71
2022/03/09 01:55:59;;;;;;;30.17;24.00;;;1.40;99.90;;;;;;4996519;28;20469;-72
2022/03/09 01:58:26;;;;;;;28.93;22.50;;;1.40;99.90;;;;;;4997550;28;20459;-72
2022/03/09 02:00:54;;;;;;;27.27;23.60;;;1.30;99.90;;;;;;5002683;28;20465;-73
2022/03/09 02:03:21;;;;;;;33.27;23.77;;;1.30;99.90;;;;;;5002492;28;20889;-72
2022/03/09 02:05:48;;;;;;;27.63;24.77;;;1.20;99.90;;;;;;5002880;28;20461;-73
2022/03/09 02:11:00;;;;;;;27.43;22.97;;;1.30;99.90;;;;;;5001019;28;20468;-72
2022/03/09 02:13:27;;;;;;;24.70;22.13;;;1.20;99.90;;;;;;4996187;28;20496;-71
2022/03/09 02:15:54;;;;;;;25.73;23.33;;;1.10;99.90;;;;;;5002295;28;20481;-72
2022/03/09 02:18:21;;;;;;;25.70;22.57;;;1.10;99.90;;;;;;5004478;28;20838;-73
2022/03/09 02:20:50;;;;;;;28.37;22.50;;;1.10;99.90;;;;;;4999905;28;20472;-72
2022/03/09 02:23:19;;;;;;;24.97;22.40;;;1.10;99.90;;;;;;4999279;28;20553;-72
2022/03/09 02:25:46;;;;;;;26.33;21.83;;;1.00;99.90;;;;;;4999775;28;20477;-73
2022/03/09 02:28:12;;;;;;;25.73;22.03;;;1.00;99.90;;;;;;4996275;28;20497;-73
2022/03/09 02:30:40;;;;;;;26.20;23.53;;;0.90;99.90;;;;;;5004410;28;20498;-72
2022/03/09 02:33:06;;;;;;;24.60;21.73;;;0.80;99.90;;;;;;5004394;28;20536;-72
2022/03/09 02:35:33;;;;;;;23.97;21.87;;;0.80;99.90;;;;;;4995419;28;20468;-71
2022/03/09 02:38:00;;;;;;;39.63;22.03;;;0.80;99.90;;;;;;4994338;28;20500;-72
2022/03/09 02:40:28;;;;;;;27.67;21.97;;;0.80;99.90;;;;;;4999641;28;20473;-72
2022/03/09 02:42:55;;;;;;;28.70;22.20;;;0.80;99.90;;;;;;5000800;28;20473;-72
2022/03/09 02:45:22;;;;;;;25.00;22.63;;;0.90;99.90;;;;;;5003495;28;20468;-71
2022/03/09 02:47:50;;;;;;;24.17;22.10;;;0.90;99.90;;;;;;5002612;28;20572;-72
2022/03/09 02:50:17;;;;;;;32.23;24.00;;;0.90;99.90;;;;;;5000541;28;20504;-72
2022/03/09 02:52:45;;;;;;;25.50;23.27;;;0.80;99.90;;;;;;4999320;28;20473;-71
2022/03/09 02:55:12;;;;;;;25.27;22.90;;;0.80;99.90;;;;;;4996830;28;20473;-71
2022/03/09 02:57:43;;;;;;;24.03;21.83;;;0.90;99.90;;;;;;4995125;28;21047;-72
2022/03/09 03:00:11;;;;;;;23.50;21.50;;;0.90;99.90;;;;;;5002195;28;20476;-72
2022/03/09 03:02:39;;;;;;;25.83;21.90;;;1.00;99.90;;;;;;5004468;28;20461;-72
2022/03/09 03:05:08;;;;;;;23.33;21.23;;;1.00;99.90;;;;;;5001791;28;21041;-72
2022/03/09 03:07:35;;;;;;;27.93;22.27;;;1.00;99.90;;;;;;4997980;28;20473;-72
2022/03/09 03:12:45;;;;;;;24.00;22.00;;;1.10;99.90;;;;;;4993669;28;20470;-72
2022/03/09 03:15:13;;;;;;;25.90;23.07;;;1.10;99.90;;;;;;5000971;28;20832;-72
2022/03/09 03:17:40;;;;;;;24.93;22.50;;;1.10;99.90;;;;;;5001544;28;20470;-72
2022/03/09 03:20:07;;;;;;;25.17;22.70;;;1.10;99.90;;;;;;5001475;28;20948;-72
2022/03/09 03:22:34;;;;;;;24.00;21.53;;;1.10;99.90;;;;;;5000727;28;20472;-72
2022/03/09 03:25:02;;;;;;;24.10;22.00;;;1.10;99.90;;;;;;5002660;28;20476;-71
2022/03/09 03:27:29;;;;;;;25.37;22.70;;;1.10;99.90;;;;;;5002634;28;20493;-72
2022/03/09 03:29:57;;;;;;;26.37;23.03;;;1.10;99.90;;;;;;5008827;28;20526;-72
2022/03/09 03:32:24;;;;;;;24.47;22.10;;;1.10;99.90;;;;;;5001203;28;20479;-75
2022/03/09 03:34:51;;;;;;;25.20;22.80;;;1.10;99.90;;;;;;5005153;28;20460;-72
2022/03/09 03:37:18;;;;;;;23.90;21.90;;;1.10;99.90;;;;;;4999970;28;20575;-72
2022/03/09 03:39:45;;;;;;;23.77;21.60;;;1.10;99.90;;;;;;5000905;28;20534;-72
2022/03/09 03:42:12;;;;;;;24.57;22.23;;;1.10;99.90;;;;;;4999922;28;20472;-72
2022/03/09 03:44:39;;;;;;;23.20;20.80;;;1.00;99.90;;;;;;5002392;28;21140;-71
2022/03/09 03:47:09;;;;;;;23.83;21.73;;;1.00;99.90;;;;;;5001023;28;21034;-72
2022/03/09 03:49:36;;;;;;;24.10;21.60;;;1.00;99.90;;;;;;5007315;28;20491;-71
2022/03/09 03:52:04;;;;;;;25.30;23.00;;;1.00;99.90;;;;;;5001296;28;20468;-71
2022/03/09 03:54:31;;;;;;;23.53;21.43;;;0.90;99.90;;;;;;5002639;28;20927;-72
2022/03/09 03:56:58;;;;;;;23.90;21.90;;;1.00;99.90;;;;;;5005196;28;20465;-72
2022/03/09 03:59:26;;;;;;;23.97;21.83;;;0.90;99.90;;;;;;5005695;28;20531;-72
2022/03/09 04:01:53;;;;;;;25.53;21.10;;;0.90;99.90;;;;;;5007764;28;21017;-71
2022/03/09 04:04:21;;;;;;;25.67;22.47;;;1.00;99.90;;;;;;4997546;28;20466;-73
2022/03/09 04:06:48;;;;;;;27.97;22.13;;;0.90;99.90;;;;;;5001935;28;20464;-72
2022/03/09 04:09:15;;;;;;;25.60;22.90;;;0.90;99.90;;;;;;5004072;28;20464;-73
2022/03/09 04:11:42;;;;;;;29.90;23.97;;;0.90;99.90;;;;;;4999699;28;20468;-73
2022/03/09 04:14:09;;;;;;;33.53;22.37;;;0.80;99.90;;;;;;4995330;28;20995;-73
2022/03/09 04:16:36;;;;;;;27.77;23.27;;;0.90;99.90;;;;;;5003757;28;20464;-73
2022/03/09 04:19:03;;;;;;;25.03;22.53;;;0.90;99.90;;;;;;4998866;28;20669;-72
2022/03/09 04:21:31;;;;;;;22.67;20.80;;;0.90;99.90;;;;;;5001725;28;20845;-73
2022/03/09 04:23:58;;;;;;;26.97;23.40;;;0.80;99.90;;;;;;5004916;28;20477;-73
2022/03/09 04:26:25;;;;;;;24.80;22.37;;;0.70;99.90;;;;;;5002411;28;20971;-73
2022/03/09 04:28:52;;;;;;;23.50;21.00;;;0.60;99.90;;;;;;5003928;28;21007;-72
2022/03/09 04:31:18;;;;;;;24.13;21.97;;;0.50;99.90;;;;;;4995399;28;20872;-73
2022/03/09 04:33:46;;;;;;;24.93;22.40;;;0.50;99.90;;;;;;5003713;28;20469;-73
2022/03/09 04:36:14;;;;;;;24.50;22.50;;;0.60;99.90;;;;;;5000758;28;20931;-72
2022/03/09 04:38:44;;;;;;;33.97;21.43;;;0.60;99.90;;;;;;5005869;28;20462;-72
2022/03/09 04:41:11;;;;;;;22.13;20.50;;;0.60;99.90;;;;;;5003941;28;20987;-73
2022/03/09 04:43:38;;;;;;;25.17;22.67;;;0.50;99.90;;;;;;5004494;28;20982;-73
2022/03/09 04:46:05;;;;;;;24.97;22.43;;;0.60;99.90;;;;;;5007986;28;20466;-71
2022/03/09 04:48:34;;;;;;;31.70;22.23;;;0.50;99.90;;;;;;5001349;28;20466;-73
2022/03/09 04:51:02;;;;;;;23.77;21.87;;;0.50;99.90;;;;;;4999544;28;20504;-72
2022/03/09 04:53:29;;;;;;;24.37;22.40;;;0.50;99.90;;;;;;5001768;28;20459;-72
2022/03/09 04:55:57;;;;;;;22.90;21.10;;;0.50;99.90;;;;;;5001920;28;20450;-72
2022/03/09 04:58:24;;;;;;;24.63;22.47;;;0.50;99.90;;;;;;4999523;28;20983;-73
2022/03/09 05:00:51;;;;;;;23.63;21.73;;;0.60;99.90;;;;;;5000273;28;20909;-72
2022/03/09 05:03:18;;;;;;;23.33;21.03;;;0.60;99.90;;;;;;4976455;28;20469;-72
2022/03/09 05:05:45;;;;;;;24.13;21.70;;;0.70;99.90;;;;;;4973831;28;20489;-73
2022/03/09 05:08:13;;;;;;;24.80;22.40;;;0.60;99.90;;;;;;4973489;28;20524;-72
2022/03/09 05:10:40;;;;;;;26.37;23.77;;;0.70;99.90;;;;;;4972550;28;21007;-71
2022/03/09 05:13:08;;;;;;;24.43;22.10;;;0.70;99.90;;;;;;4972701;28;20475;-75
2022/03/09 05:15:35;;;;;;;25.00;22.67;;;0.70;99.90;;;;;;4972436;28;20470;-73
2022/03/09 05:18:02;;;;;;;24.10;21.87;;;0.60;99.90;;;;;;4971648;28;20476;-74
2022/03/09 05:20:30;;;;;;;28.37;22.60;;;0.60;99.90;;;;;;4972770;28;20556;-72
2022/03/09 05:22:58;;;;;;;23.87;21.90;;;0.60;99.90;;;;;;4973074;28;20473;-73
2022/03/09 05:25:25;;;;;;;25.53;21.53;;;0.60;99.90;;;;;;4972493;28;20472;-73
2022/03/09 05:27:52;;;;;;;24.30;22.13;;;0.60;99.90;;;;;;4972530;28;20496;-73
2022/03/09 05:30:20;;;;;;;24.33;22.23;;;0.60;99.90;;;;;;4970805;28;20503;-74
2022/03/09 05:32:47;;;;;;;23.87;21.80;;;0.60;99.90;;;;;;4971589;28;20852;-72
2022/03/09 05:35:13;;;;;;;24.97;22.37;;;0.60;99.90;;;;;;4972421;28;20482;-72
2022/03/09 05:37:42;;;;;;;25.27;22.77;;;0.60;99.90;;;;;;4973038;28;20488;-74
2022/03/09 05:40:09;;;;;;;23.20;21.53;;;0.70;99.90;;;;;;4971347;28;21058;-73
2022/03/09 05:42:37;;;;;;;25.37;23.00;;;0.70;99.90;;;;;;4972745;28;20506;-72
2022/03/09 05:45:05;;;;;;;24.80;22.70;;;0.70;99.90;;;;;;4970808;28;20473;-72
2022/03/09 05:47:44;;;;;;;24.90;22.73;;;0.70;99.90;;;;;;4972315;28;20478;-72
2022/03/09 05:50:13;;;;;;;25.60;23.00;;;0.70;99.90;;;;;;4971661;28;20532;-72
2022/03/09 05:52:40;;;;;;;23.63;21.60;;;0.70;99.90;;;;;;4971765;28;20894;-72
2022/03/09 05:55:07;;;;;;;25.27;22.77;;;0.70;99.90;;;;;;4971803;28;20478;-71
2022/03/09 05:57:34;;;;;;;35.57;23.67;;;0.60;99.90;;;;;;4972732;28;20473;-71
2022/03/09 06:00:02;;;;;;;25.23;23.13;;;0.60;99.90;;;;;;4971411;28;20472;-71
2022/03/09 06:02:30;;;;;;;24.67;22.10;;;0.60;99.90;;;;;;4971759;28;20480;-72
2022/03/09 06:04:58;;;;;;;23.97;21.90;;;0.60;99.90;;;;;;4972132;28;20498;-71
2022/03/09 06:07:25;;;;;;;25.50;22.20;;;0.60;99.90;;;;;;4971905;28;20474;-71
2022/03/09 06:09:51;;;;;;;25.67;23.17;;;0.60;99.90;;;;;;4971244;28;20451;-72
2022/03/09 06:12:18;;;;;;;28.73;23.10;;;0.60;99.90;;;;;;4971620;28;20496;-72
2022/03/09 06:14:45;;;;;;;24.00;21.80;;;0.70;99.90;;;;;;4972095;28;20473;-71
2022/03/09 06:17:12;;;;;;;26.23;23.57;;;0.80;99.90;;;;;;4971004;28;20488;-72
2022/03/09 06:19:39;;;;;;;25.43;23.33;;;0.80;99.90;;;;;;4970974;28;20473;-72
2022/03/09 06:22:07;;;;;;;25.10;23.10;;;0.80;99.90;;;;;;4970610;28;20457;-72
2022/03/09 06:24:34;;;;;;;31.70;23.53;;;0.80;99.90;;;;;;4971147;28;21055;-72
2022/03/09 06:27:01;;;;;;;24.13;22.03;;;0.80;99.90;;;;;;4972132;28;20482;-73
2022/03/09 06:29:28;;;;;;;26.80;23.07;;;0.80;99.90;;;;;;4990204;28;20472;-72
2022/03/09 06:31:55;;;;;;;25.73;22.93;;;0.80;99.90;;;;;;4997845;28;20497;-72
2022/03/09 06:34:22;;;;;;;26.40;24.13;;;0.90;99.90;;;;;;4993936;28;20850;-72
2022/03/09 06:36:51;;;;;;;25.50;23.10;;;0.90;99.90;;;;;;4967584;28;20956;-73
2022/03/09 06:39:20;;;;;;;27.20;24.20;;;0.90;99.90;;;;;;4968154;28;20887;-73
2022/03/09 06:41:48;;;;;;;25.17;22.97;;;0.80;99.90;;;;;;4967328;28;20469;-73
2022/03/09 06:44:16;;;;;;;27.83;25.00;;;0.90;99.90;;;;;;4975607;28;20473;-72
2022/03/09 06:46:43;;;;;;;25.87;23.70;;;0.90;99.90;;;;;;4992824;28;20476;-72
2022/03/09 06:49:09;;;;;;;27.00;24.43;;;1.00;99.90;;;;;;4994079;28;20474;-72
2022/03/09 06:51:36;;;;;;;27.83;25.17;;;1.00;99.90;;;;;;4966648;28;20705;-74
2022/03/09 06:54:03;;;;;;;27.90;24.37;;;1.00;99.90;;;;;;4967272;28;20509;-72
2022/03/09 06:56:32;;;;;;;28.13;25.37;;;1.10;99.90;;;;;;4977684;28;20465;-72
2022/03/09 06:58:58;;;;;;;27.20;24.80;;;1.20;99.90;;;;;;5005052;28;20465;-72
2022/03/09 07:01:25;;;;;;;27.10;23.93;;;1.40;99.90;;;;;;4972996;28;20472;-72
2022/03/09 07:03:52;;;;;;;30.97;24.33;;;1.50;99.90;;;;;;4967283;28;20474;-72
2022/03/09 07:06:19;;;;;;;28.23;25.70;;;1.50;99.90;;;;;;4970926;28;21121;-72
2022/03/09 07:08:46;;;;;;;35.07;25.10;;;1.60;99.90;;;;;;4971694;28;20490;-72
2022/03/09 07:11:13;;;;;;;29.90;23.80;;;1.60;99.90;;;;;;4969394;28;20502;-72
2022/03/09 07:13:42;;;;;;;26.17;23.87;;;1.70;99.90;;;;;;4971470;28;20546;-72
2022/03/09 07:16:09;;;;;;;28.20;24.63;;;1.80;99.90;;;;;;4972577;28;20694;-72
2022/03/09 07:18:36;;;;;;;30.93;24.93;;;1.90;99.90;;;;;;4968771;28;20626;-72
2022/03/09 07:21:02;;;;;;;26.40;24.30;;;1.90;99.90;;;;;;4969840;28;20470;-72
2022/03/09 07:23:29;;;;;;;27.37;24.53;;;2.00;99.90;;;;;;4972276;28;20464;-72
2022/03/09 07:25:56;;;;;;;28.93;26.20;;;2.10;99.90;;;;;;4972071;28;20469;-72
2022/03/09 07:28:23;;;;;;;30.57;24.20;;;2.20;99.90;;;;;;4971680;28;20488;-72
2022/03/09 07:30:51;;;;;;;42.23;25.90;;;2.30;99.90;;;;;;4971501;28;20501;-72
2022/03/09 07:33:18;;;;;;;27.03;24.50;;;2.40;99.90;;;;;;4971356;28;20466;-73
2022/03/09 07:35:46;;;;;;;26.97;24.37;;;2.50;99.90;;;;;;4971863;28;21121;-73
2022/03/09 07:38:13;;;;;;;28.43;25.73;;;2.70;99.90;;;;;;4971198;28;21593;-73
2022/03/09 07:40:40;;;;;;;29.63;25.70;;;2.80;99.90;;;;;;4971793;28;20981;-72
2022/03/09 07:43:06;;;;;;;28.00;25.37;;;2.90;99.90;;;;;;4972119;28;20900;-74
2022/03/09 07:45:34;;;;;;;27.33;24.43;;;3.10;99.90;;;;;;4970804;28;20820;-73
2022/03/09 07:48:02;;;;;;;29.17;26.07;;;3.20;99.90;;;;;;4971083;28;20470;-73
2022/03/09 07:50:29;;;;;;;28.73;25.90;;;3.30;99.90;;;;;;4971111;28;20569;-73
2022/03/09 07:52:56;;;;;;;29.07;25.83;;;3.40;99.90;;;;;;4972046;28;20826;-73
2022/03/09 07:55:23;;;;;;;30.23;26.20;;;3.50;99.90;;;;;;4971836;28;22375;-73
2022/03/09 07:57:50;;;;;;;28.70;25.77;;;3.70;99.90;;;;;;4972302;28;20844;-73
2022/03/09 08:00:17;;;;;;;28.57;26.03;;;3.90;99.90;;;;;;4971264;28;20584;-73
2022/03/09 08:02:44;;;;;;;28.73;26.23;;;4.00;99.90;;;;;;4970469;28;20473;-72
2022/03/09 08:05:13;;;;;;;28.73;25.73;;;4.00;99.90;;;;;;4969168;28;20458;-73
2022/03/09 08:07:40;;;;;;;37.43;26.60;;;4.10;99.90;;;;;;4978894;28;20468;-73
2022/03/09 08:10:08;;;;;;;26.97;24.20;;;4.20;99.90;;;;;;4966424;28;20468;-74
2022/03/09 08:12:35;;;;;;;27.10;24.70;;;4.30;99.90;;;;;;4992182;28;20608;-73
2022/03/09 08:15:03;;;;;;;28.20;25.40;;;4.40;99.30;;;;;;4979489;28;20482;-74
2022/03/09 08:17:29;;;;;;;27.20;24.60;;;4.40;99.30;;;;;;4967492;28;21922;-73
2022/03/09 08:19:56;;;;;;;30.87;25.50;;;4.50;98.30;;;;;;4968461;28;20472;-73
2022/03/09 08:22:24;;;;;;;29.83;26.80;;;4.60;98.80;;;;;;4967917;28;20557;-73
2022/03/09 08:24:51;;;;;;;29.10;26.00;;;4.70;98.20;;;;;;4967050;28;21246;-72
2022/03/09 08:27:18;;;;;;;28.27;25.83;;;4.90;97.80;;;;;;4975288;28;20485;-74
2022/03/09 08:29:46;;;;;;;29.57;26.80;;;5.10;97.70;;;;;;4999486;28;20468;-73
2022/03/09 08:32:12;;;;;;;28.87;25.97;;;5.40;97.60;;;;;;4996988;28;20494;-73
2022/03/09 08:34:39;;;;;;;40.17;26.40;;;5.40;97.20;;;;;;5000924;28;20463;-72
2022/03/09 08:37:07;;;;;;;29.43;25.97;;;5.60;97.10;;;;;;4994785;28;20598;-74
2022/03/09 08:39:35;;;;;;;32.40;26.43;;;5.60;96.40;;;;;;4970127;28;21020;-74
2022/03/09 08:42:02;;;;;;;28.23;25.50;;;5.50;96.20;;;;;;4970566;28;20833;-74
2022/03/09 08:44:29;;;;;;;28.13;25.43;;;5.70;96.00;;;;;;4971663;28;20992;-73
2022/03/09 08:46:56;;;;;;;29.07;26.20;;;5.80;95.50;;;;;;4971324;28;20519;-74
2022/03/09 08:49:23;;;;;;;29.67;26.53;;;6.00;95.90;;;;;;4972195;28;20458;-73
2022/03/09 08:51:49;;;;;;;29.40;26.63;;;6.10;96.00;;;;;;4972441;28;20504;-73
2022/03/09 08:54:16;;;;;;;29.70;26.67;;;6.50;96.10;;;;;;4971985;28;20799;-74
2022/03/09 08:56:45;;;;;;;28.27;25.70;;;6.60;95.50;;;;;;4972558;28;21114;-73
2022/03/09 08:59:12;;;;;;;28.07;25.53;;;6.70;94.00;;;;;;4972613;28;20597;-73
2022/03/09 09:01:38;;;;;;;28.03;25.33;;;6.70;94.00;;;;;;4972833;28;20470;-72
2022/03/09 09:04:05;;;;;;;27.73;25.40;;;6.70;93.40;;;;;;4972245;28;20507;-73
2022/03/09 09:06:32;;;;;;;27.93;25.43;;;6.90;93.70;;;;;;4972047;28;20477;-74
2022/03/09 09:08:59;;;;;;;28.67;26.00;;;7.10;92.80;;;;;;4971410;28;20517;-73
2022/03/09 09:11:26;;;;;;;28.10;25.47;;;7.00;91.50;;;;;;4971802;28;21101;-73
2022/03/09 09:13:54;;;;;;;29.33;25.40;;;7.00;92.50;;;;;;4971459;28;20474;-73
2022/03/09 09:16:24;;;;;;;27.97;25.03;;;7.20;91.60;;;;;;4972098;28;23299;-72
2022/03/09 09:18:51;;;;;;;28.13;25.57;;;7.30;92.20;;;;;;4969528;28;20469;-72
2022/03/09 09:21:18;;;;;;;28.00;25.47;;;7.50;91.50;;;;;;4972278;28;20563;-73
2022/03/09 09:23:46;;;;;;;27.40;25.23;;;7.60;90.90;;;;;;4974437;28;20993;-73
2022/03/09 09:26:15;;;;;;;27.40;25.00;;;7.60;89.40;;;;;;4974075;28;20462;-72
2022/03/09 09:28:42;;;;;;;27.50;25.23;;;7.70;89.70;;;;;;4972343;28;21044;-73
2022/03/09 09:31:11;;;;;;;27.10;24.97;;;7.70;89.20;;;;;;4972899;28;21327;-73
2022/03/09 09:33:38;;;;;;;26.67;24.33;;;7.90;86.60;;;;;;4972384;28;20481;-75
2022/03/09 09:36:05;;;;;;;26.57;24.30;;;7.90;85.80;;;;;;4972540;28;20470;-74
2022/03/09 09:38:32;;;;;;;27.53;25.13;;;7.90;86.00;;;;;;4974110;28;20470;-73
2022/03/09 09:40:59;;;;;;;25.63;23.33;;;8.10;87.00;;;;;;4973350;28;20501;-73
2022/03/09 09:43:26;;;;;;;25.40;23.33;;;8.10;87.10;;;;;;4973827;28;20465;-75
2022/03/09 09:45:53;;;;;;;27.67;24.87;;;8.10;84.30;;;;;;4972868;28;20462;-75
2022/03/09 09:48:21;;;;;;;28.63;25.83;;;8.30;84.40;;;;;;4973338;28;20470;-73
2022/03/09 09:50:51;;;;;;;26.53;24.43;;;8.40;81.60;;;;;;4972339;28;20470;-75
2022/03/09 09:53:17;;;;;;;29.20;24.83;;;8.50;82.20;;;;;;4973412;28;20475;-74
2022/03/09 09:55:46;;;;;;;28.33;25.50;;;8.60;80.20;;;;;;4974157;28;20520;-73
2022/03/09 09:58:14;;;;;;;27.07;24.53;;;8.50;79.60;;;;;;4972720;28;20462;-73
2022/03/09 10:00:44;;;;;;;27.47;24.80;;;8.40;79.10;;;;;;4973672;28;20473;-73
2022/03/09 10:03:11;;;;;;;31.03;25.30;;;8.60;82.60;;;;;;4972419;28;21363;-75
2022/03/09 10:05:40;;;;;;;28.13;25.30;;;9.10;81.40;;;;;;4971260;28;20977;-74
2022/03/09 10:08:21;;;;;;;29.87;26.73;;;9.60;79.30;;;;;;4970983;28;20473;-74
2022/03/09 10:10:59;;;;;;;25.57;23.57;;;10.30;76.40;;;;;;4972357;28;20931;-75
2022/03/09 10:13:28;;;;;;;28.50;25.90;;;11.20;74.60;;;;;;4969825;28;20466;-73
2022/03/09 10:16:20;;;;;;;27.17;24.40;;;11.70;68.50;;;;;;4969245;28;20756;-74
2022/03/09 10:18:53;;;;;;;29.53;24.97;;;11.70;70.10;;;;;;4970973;28;20474;-75
2022/03/09 10:21:23;;;;;;;27.40;25.30;;;12.20;66.70;;;;;;4970782;28;20513;-74
2022/03/09 10:23:57;;;;;;;27.93;25.33;;;13.20;64.60;;;;;;4970512;28;20560;-73
2022/03/09 10:26:28;;;;;;;27.70;25.40;;;13.50;61.50;;;;;;4970012;28;20475;-75
2022/03/09 10:28:56;;;;;;;27.77;25.20;;;13.40;59.10;;;;;;4971001;28;20462;-74
2022/03/09 10:31:44;;;;;;;27.80;25.27;;;13.00;58.20;;;;;;4970395;28;20614;-76
2022/03/09 10:34:12;;;;;;;26.87;24.57;;;12.80;60.40;;;;;;4970631;28;20782;-76
2022/03/09 10:36:54;;;;;;;27.57;25.03;;;13.40;57.80;;;;;;4970570;28;20497;-75
2022/03/09 10:39:24;;;;;;;27.03;24.63;;;13.80;56.40;;;;;;4971160;28;21071;-74
2022/03/09 10:41:51;;;;;;;27.70;25.20;;;13.80;56.70;;;;;;4970447;28;21141;-75
2022/03/09 10:44:20;;;;;;;28.47;25.40;;;14.60;57.00;;;;;;4969831;28;20884;-77
2022/03/09 10:46:52;;;;;;;28.70;25.57;;;14.30;54.40;;;;;;4971327;28;20473;-74
2022/03/09 10:49:20;;;;;;;28.20;25.60;;;14.40;53.80;;;;;;4970544;28;20462;-73
2022/03/09 10:51:50;;;;;;;28.07;25.53;;;15.10;54.90;;;;;;4970434;28;20495;-72
2022/03/09 10:54:23;;;;;;;28.03;25.23;;;15.50;52.10;;;;;;4969840;28;20695;-74
2022/03/09 10:56:51;;;;;;;28.17;24.90;;;15.40;50.70;;;;;;4970388;28;20494;-73
2022/03/09 10:59:24;;;;;;;30.87;25.70;;;15.80;50.50;;;;;;4969403;28;20481;-75
2022/03/09 11:02:09;;;;;;;33.30;25.57;;;15.90;49.30;;;;;;4970015;28;20477;-73
2022/03/09 11:04:41;;;;;;;27.73;25.43;;;15.70;48.90;;;;;;4969906;28;20470;-73
2022/03/09 11:07:11;;;;;;;27.93;25.67;;;15.60;48.30;;;;;;4970281;28;20470;-74
2022/03/09 11:09:42;;;;;;;28.10;25.40;;;16.40;48.30;;;;;;4968987;28;21522;-75
2022/03/09 11:12:10;;;;;;;30.57;27.37;;;16.50;47.50;;;;;;4970741;28;20597;-75
2022/03/09 11:14:40;;;;;;;29.23;26.37;;;16.70;47.10;;;;;;4970682;28;20463;-73
2022/03/09 11:17:07;;;;;;;28.53;25.97;;;17.20;47.30;;;;;;4971704;28;20489;-73
2022/03/09 11:19:34;;;;;;;30.20;27.27;;;17.00;45.80;;;;;;4970114;28;20463;-75
2022/03/09 11:22:01;;;;;;;30.17;27.27;;;17.10;45.30;;;;;;4970772;28;20462;-72
2022/03/09 11:24:39;;;;;;;28.93;26.13;;;17.20;45.30;;;;;;4969685;28;20461;-74
2022/03/09 11:27:07;;;;;;;29.13;26.73;;;17.10;46.00;;;;;;4970253;28;20525;-73
2022/03/09 11:29:37;;;;;;;31.00;28.10;;;17.50;44.10;;;;;;4971392;28;20505;-74
2022/03/09 11:32:06;;;;;;;30.03;27.30;;;18.00;45.10;;;;;;4969833;28;20692;-74
2022/03/09 11:34:42;;;;;;;28.70;26.03;;;18.20;42.90;;;;;;4971171;28;20898;-73
2022/03/09 11:37:10;;;;;;;30.23;27.27;;;18.60;43.90;;;;;;4969929;28;22503;-74
2022/03/09 11:39:39;;;;;;;34.20;29.37;;;18.20;41.90;;;;;;4970103;28;20973;-75
2022/03/09 11:42:38;;;;;;;29.73;27.00;;;17.80;41.00;;;;;;4970074;28;20482;-73
2022/03/09 11:45:32;;;;;;;39.47;29.83;;;18.40;42.70;;;;;;4973957;28;20474;-74
2022/03/09 11:48:06;;;;;;;31.10;27.93;;;18.40;40.70;;;;;;4957886;28;20806;-73
2022/03/09 11:50:35;;;;;;;30.03;27.20;;;18.60;40.40;;;;;;4972975;28;20469;-73
2022/03/09 11:53:05;;;;;;;31.70;28.33;;;19.00;41.20;;;;;;4973451;28;21062;-74
2022/03/09 11:55:34;;;;;;;31.13;28.10;;;19.20;39.00;;;;;;4972591;28;20509;-75
2022/03/09 11:58:08;;;;;;;35.20;29.37;;;19.30;38.70;;;;;;4972798;28;20466;-73
2022/03/09 12:00:35;;;;;;;32.93;28.30;;;19.40;37.90;;;;;;4974398;28;20472;-77
2022/03/09 12:03:02;;;;;;;32.90;28.00;;;19.40;40.00;;;;;;4973604;28;20498;-73
2022/03/09 12:05:38;;;;;;;30.57;28.00;;;19.60;40.20;;;;;;4972862;28;20486;-73
2022/03/09 12:08:11;;;;;;;31.83;29.10;;;20.50;39.80;;;;;;4973058;28;20470;-76
2022/03/09 12:10:57;;;;;;;30.17;27.17;;;20.30;38.30;;;;;;4990342;28;21301;-74
2022/03/09 12:13:35;;;;;;;32.70;29.17;;;20.20;38.80;;;;;;5000911;28;20505;-75
2022/03/09 12:16:16;;;;;;;31.40;28.50;;;20.30;39.50;;;;;;5001786;28;20539;-75
2022/03/09 12:18:45;;;;;;;33.43;29.90;;;21.00;39.70;;;;;;4982373;28;20962;-74
2022/03/09 12:21:14;;;;;;;33.40;30.13;;;21.00;36.30;;;;;;4973702;28;20465;-74
2022/03/09 12:24:28;;;;;;;32.13;28.90;;;21.00;36.20;;;;;;4973117;28;20553;-75
2022/03/09 12:26:57;;;;;;;32.83;27.47;;;21.80;37.70;;;;;;4976177;28;20489;-74
2022/03/09 12:29:38;;;;;;;31.37;28.50;;;22.30;36.00;;;;;;4967664;28;21047;-74
2022/03/09 12:32:10;;;;;;;30.80;28.30;;;22.10;36.90;;;;;;4968697;28;21336;-74
2022/03/09 12:34:44;;;;;;;36.63;30.27;;;21.90;36.70;;;;;;4968271;28;20479;-73
2022/03/09 12:37:13;;;;;;;31.93;28.80;;;21.70;37.00;;;;;;4969454;28;20576;-73
2022/03/09 12:39:40;;;;;;;30.77;27.57;;;22.10;36.40;;;;;;4969166;28;20471;-74
2022/03/09 12:42:08;;;;;;;33.63;27.87;;;22.70;35.70;;;;;;4968595;28;20485;-73
2022/03/09 12:44:36;;;;;;;30.30;27.47;;;22.90;36.00;;;;;;4968961;28;20466;-74